sensor_id;sensor_type;location;lat;lon;timestamp;pressure;altitude;pressure_sealevel;temperature;humidity
6433;BME280;3249;42.690;23.260;2023-07-13T00:01:29;94603.06;;;21.27;100.00
6433;BME280;3249;42.690;23.260;2023-07-13T00:04:02;94596.16;;;21.03;100.00
6433;BME280;3249;42.690;23.260;2023-07-13T00:06:32;94595.41;;;20.97;100.00
6433;BME280;3249;42.690;23.260;2023-07-13T00:09:01;94590.66;;;21.04;100.00
6433;BME280;3249;42.690;23.260;2023-07-13T00:11:30;94585.50;;;20.89;100.00
6433;BME280;3249;42.690;23.260;2023-07-13T00:13:59;94585.31;;;20.76;100.00
6433;BME280;3249;42.690;23.260;2023-07-13T00:16:28;94581.25;;;20.55;100.00
6433;BME280;3249;42.690;23.260;2023-07-13T00:18:57;94587.31;;;20.50;100.00
6433;BME280;3249;42.690;23.260;2023-07-13T00:21:29;94577.28;;;20.67;100.00
6433;BME280;3249;42.690;23.260;2023-07-13T00:23:58;94573.81;;;20.77;100.00
6433;BME280;3249;42.690;23.260;2023-07-13T00:26:27;94550.31;;;20.67;100.00
6433;BME280;3249;42.690;23.260;2023-07-13T00:28:58;94544.84;;;20.63;100.00
6433;BME280;3249;42.690;23.260;2023-07-13T00:31:29;94578.97;;;20.43;100.00
6433;BME280;3249;42.690;23.260;2023-07-13T00:33:57;94578.22;;;20.38;100.00
6433;BME280;3249;42.690;23.260;2023-07-13T00:36:29;94576.09;;;20.40;100.00
6433;BME280;3249;42.690;23.260;2023-07-13T00:38:59;94574.34;;;20.20;100.00
6433;BME280;3249;42.690;23.260;2023-07-13T00:41:31;94581.41;;;20.20;100.00
6433;BME280;3249;42.690;23.260;2023-07-13T00:44:00;94575.19;;;20.11;100.00
6433;BME280;3249;42.690;23.260;2023-07-13T00:46:30;94573.53;;;20.30;100.00
6433;BME280;3249;42.690;23.260;2023-07-13T00:49:02;94575.06;;;20.36;100.00
6433;BME280;3249;42.690;23.260;2023-07-13T00:51:40;94551.34;;;20.17;100.00
6433;BME280;3249;42.690;23.260;2023-07-13T00:54:14;94560.97;;;20.32;100.00
6433;BME280;3249;42.690;23.260;2023-07-13T00:56:44;94577.16;;;20.39;100.00
6433;BME280;3249;42.690;23.260;2023-07-13T00:59:15;94573.06;;;20.18;100.00
6433;BME280;3249;42.690;23.260;2023-07-13T01:01:46;94571.44;;;20.27;100.00
6433;BME280;3249;42.690;23.260;2023-07-13T01:04:17;94562.06;;;20.26;100.00
6433;BME280;3249;42.690;23.260;2023-07-13T01:06:48;94567.84;;;20.18;100.00
6433;BME280;3249;42.690;23.260;2023-07-13T01:09:18;94565.31;;;19.78;100.00
6433;BME280;3249;42.690;23.260;2023-07-13T01:11:49;94566.66;;;19.60;100.00
6433;BME280;3249;42.690;23.260;2023-07-13T01:14:18;94560.16;;;19.43;100.00
6433;BME280;3249;42.690;23.260;2023-07-13T01:16:47;94574.00;;;19.33;100.00
6433;BME280;3249;42.690;23.260;2023-07-13T01:19:27;94569.28;;;19.55;100.00
6433;BME280;3249;42.690;23.260;2023-07-13T01:22:05;94564.03;;;19.70;100.00
6433;BME280;3249;42.690;23.260;2023-07-13T01:24:35;94557.22;;;19.74;100.00
6433;BME280;3249;42.690;23.260;2023-07-13T01:27:06;94545.72;;;19.70;100.00
6433;BME280;3249;42.690;23.260;2023-07-13T01:29:36;94547.81;;;19.78;100.00
6433;BME280;3249;42.690;23.260;2023-07-13T01:32:08;94549.41;;;19.69;100.00
6433;BME280;3249;42.690;23.260;2023-07-13T01:34:38;94547.88;;;19.48;100.00
6433;BME280;3249;42.690;23.260;2023-07-13T01:37:12;94549.69;;;19.13;100.00
6433;BME280;3249;42.690;23.260;2023-07-13T01:39:41;94552.84;;;19.20;100.00
6433;BME280;3249;42.690;23.260;2023-07-13T01:42:10;94550.25;;;19.30;100.00
6433;BME280;3249;42.690;23.260;2023-07-13T01:44:42;94552.34;;;19.38;100.00
6433;BME280;3249;42.690;23.260;2023-07-13T01:47:13;94545.00;;;19.20;100.00
6433;BME280;3249;42.690;23.260;2023-07-13T01:49:42;94540.59;;;19.35;100.00
6433;BME280;3249;42.690;23.260;2023-07-13T01:52:14;94551.03;;;19.25;100.00
6433;BME280;3249;42.690;23.260;2023-07-13T01:54:43;94540.84;;;18.94;100.00
6433;BME280;3249;42.690;23.260;2023-07-13T01:57:12;94547.09;;;19.23;100.00
6433;BME280;3249;42.690;23.260;2023-07-13T01:59:41;94547.09;;;19.13;100.00
6433;BME280;3249;42.690;23.260;2023-07-13T02:02:10;94554.41;;;19.36;100.00
6433;BME280;3249;42.690;23.260;2023-07-13T02:04:39;94540.88;;;19.34;100.00
6433;BME280;3249;42.690;23.260;2023-07-13T02:07:09;94555.19;;;19.51;100.00
6433;BME280;3249;42.690;23.260;2023-07-13T02:09:41;94558.31;;;19.38;100.00
6433;BME280;3249;42.690;23.260;2023-07-13T02:12:11;94569.81;;;19.52;100.00
6433;BME280;3249;42.690;23.260;2023-07-13T02:14:40;94540.06;;;19.33;100.00
6433;BME280;3249;42.690;23.260;2023-07-13T02:17:10;94568.78;;;19.38;100.00
6433;BME280;3249;42.690;23.260;2023-07-13T02:19:39;94558.88;;;19.40;100.00
6433;BME280;3249;42.690;23.260;2023-07-13T02:22:08;94565.38;;;19.48;100.00
6433;BME280;3249;42.690;23.260;2023-07-13T02:24:37;94565.88;;;19.45;100.00
6433;BME280;3249;42.690;23.260;2023-07-13T02:27:09;94560.16;;;19.33;100.00
6433;BME280;3249;42.690;23.260;2023-07-13T02:29:38;94564.56;;;19.22;100.00
6433;BME280;3249;42.690;23.260;2023-07-13T02:32:07;94565.63;;;19.11;100.00
6433;BME280;3249;42.690;23.260;2023-07-13T02:34:36;94561.44;;;18.95;100.00
6433;BME280;3249;42.690;23.260;2023-07-13T02:37:05;94560.41;;;18.86;100.00
6433;BME280;3249;42.690;23.260;2023-07-13T02:39:35;94566.41;;;19.07;100.00
6433;BME280;3249;42.690;23.260;2023-07-13T02:42:05;94564.28;;;18.69;100.00
6433;BME280;3249;42.690;23.260;2023-07-13T02:44:37;94561.69;;;18.74;100.00
6433;BME280;3249;42.690;23.260;2023-07-13T02:47:06;94566.66;;;18.85;100.00
6433;BME280;3249;42.690;23.260;2023-07-13T02:49:35;94562.75;;;18.88;100.00
6433;BME280;3249;42.690;23.260;2023-07-13T02:52:05;94561.66;;;18.64;100.00
6433;BME280;3249;42.690;23.260;2023-07-13T02:54:35;94552.50;;;18.46;100.00
6433;BME280;3249;42.690;23.260;2023-07-13T02:57:05;94560.13;;;18.73;100.00
6433;BME280;3249;42.690;23.260;2023-07-13T02:59:36;94566.91;;;18.89;100.00
6433;BME280;3249;42.690;23.260;2023-07-13T03:02:05;94563.81;;;19.07;100.00
6433;BME280;3249;42.690;23.260;2023-07-13T03:04:36;94567.97;;;19.03;100.00
6433;BME280;3249;42.690;23.260;2023-07-13T03:07:07;94580.00;;;19.14;100.00
6433;BME280;3249;42.690;23.260;2023-07-13T03:09:37;94553.88;;;18.74;100.00
6433;BME280;3249;42.690;23.260;2023-07-13T03:12:08;94569.03;;;19.07;100.00
6433;BME280;3249;42.690;23.260;2023-07-13T03:14:39;94577.09;;;19.10;100.00
6433;BME280;3249;42.690;23.260;2023-07-13T03:17:09;94584.69;;;19.12;100.00
6433;BME280;3249;42.690;23.260;2023-07-13T03:19:40;94573.72;;;19.05;100.00
6433;BME280;3249;42.690;23.260;2023-07-13T03:22:10;94573.72;;;19.05;100.00
6433;BME280;3249;42.690;23.260;2023-07-13T03:24:41;94575.03;;;19.42;100.00
6433;BME280;3249;42.690;23.260;2023-07-13T03:27:11;94575.53;;;19.64;100.00
6433;BME280;3249;42.690;23.260;2023-07-13T03:29:45;94583.28;;;19.94;100.00
6433;BME280;3249;42.690;23.260;2023-07-13T03:32:16;94584.06;;;20.10;100.00
6433;BME280;3249;42.690;23.260;2023-07-13T03:34:45;94593.97;;;20.18;100.00
6433;BME280;3249;42.690;23.260;2023-07-13T03:37:14;94597.91;;;20.10;100.00
6433;BME280;3249;42.690;23.260;2023-07-13T03:39:44;94597.38;;;20.23;100.00
6433;BME280;3249;42.690;23.260;2023-07-13T03:42:13;94593.06;;;20.42;100.00
6433;BME280;3249;42.690;23.260;2023-07-13T03:44:45;94593.94;;;20.28;100.00
6433;BME280;3249;42.690;23.260;2023-07-13T03:47:19;94600.09;;;20.52;100.00
6433;BME280;3249;42.690;23.260;2023-07-13T03:49:48;94596.47;;;20.96;100.00
6433;BME280;3249;42.690;23.260;2023-07-13T03:52:17;94605.41;;;21.29;100.00
6433;BME280;3249;42.690;23.260;2023-07-13T03:54:45;94579.28;;;21.19;100.00
6433;BME280;3249;42.690;23.260;2023-07-13T03:57:15;94595.78;;;21.53;100.00
6433;BME280;3249;42.690;23.260;2023-07-13T03:59:47;94589.69;;;21.62;100.00
6433;BME280;3249;42.690;23.260;2023-07-13T04:02:16;94595.94;;;22.19;100.00
6433;BME280;3249;42.690;23.260;2023-07-13T04:04:45;94581.47;;;22.21;100.00
6433;BME280;3249;42.690;23.260;2023-07-13T04:07:14;94593.41;;;21.85;100.00
6433;BME280;3249;42.690;23.260;2023-07-13T04:09:42;94591.63;;;22.28;100.00
6433;BME280;3249;42.690;23.260;2023-07-13T04:12:11;94601.44;;;22.64;100.00
6433;BME280;3249;42.690;23.260;2023-07-13T04:14:42;94604.00;;;23.06;100.00
6433;BME280;3249;42.690;23.260;2023-07-13T04:17:14;94596.59;;;23.45;100.00
6433;BME280;3249;42.690;23.260;2023-07-13T04:19:43;94610.63;;;23.73;100.00
6433;BME280;3249;42.690;23.260;2023-07-13T04:22:12;94609.94;;;23.81;100.00
6433;BME280;3249;42.690;23.260;2023-07-13T04:24:41;94614.50;;;23.43;100.00
6433;BME280;3249;42.690;23.260;2023-07-13T04:27:10;94611.69;;;22.84;100.00
6433;BME280;3249;42.690;23.260;2023-07-13T04:29:39;94609.81;;;22.66;100.00
6433;BME280;3249;42.690;23.260;2023-07-13T04:32:08;94614.19;;;22.52;100.00
6433;BME280;3249;42.690;23.260;2023-07-13T04:34:39;94584.72;;;22.13;100.00
6433;BME280;3249;42.690;23.260;2023-07-13T04:37:08;94610.19;;;22.78;100.00
6433;BME280;3249;42.690;23.260;2023-07-13T04:39:37;94595.84;;;22.71;100.00
6433;BME280;3249;42.690;23.260;2023-07-13T04:42:21;94619.81;;;22.41;100.00
6433;BME280;3249;42.690;23.260;2023-07-13T04:44:51;94623.16;;;22.51;100.00
6433;BME280;3249;42.690;23.260;2023-07-13T04:47:20;94627.00;;;22.30;100.00
6433;BME280;3249;42.690;23.260;2023-07-13T04:49:52;94609.34;;;22.17;100.00
6433;BME280;3249;42.690;23.260;2023-07-13T04:52:21;94622.44;;;22.41;100.00
6433;BME280;3249;42.690;23.260;2023-07-13T04:54:50;94630.47;;;22.73;100.00
6433;BME280;3249;42.690;23.260;2023-07-13T04:57:19;94634.38;;;22.75;100.00
6433;BME280;3249;42.690;23.260;2023-07-13T04:59:48;94634.69;;;22.92;100.00
6433;BME280;3249;42.690;23.260;2023-07-13T05:02:18;94632.50;;;22.34;100.00
6433;BME280;3249;42.690;23.260;2023-07-13T05:04:47;94629.69;;;22.72;100.00
6433;BME280;3249;42.690;23.260;2023-07-13T05:07:18;94634.06;;;22.58;100.00
6433;BME280;3249;42.690;23.260;2023-07-13T05:09:48;94636.50;;;22.73;100.00
6433;BME280;3249;42.690;23.260;2023-07-13T05:12:17;94628.41;;;22.51;100.00
6433;BME280;3249;42.690;23.260;2023-07-13T05:14:46;94632.16;;;22.64;100.00
6433;BME280;3249;42.690;23.260;2023-07-13T05:17:15;94635.53;;;23.06;100.00
6433;BME280;3249;42.690;23.260;2023-07-13T05:19:44;94639.44;;;23.09;100.00
6433;BME280;3249;42.690;23.260;2023-07-13T05:22:13;94622.53;;;23.33;100.00
6433;BME280;3249;42.690;23.260;2023-07-13T05:24:45;94644.94;;;23.63;100.00
6433;BME280;3249;42.690;23.260;2023-07-13T05:27:13;94654.66;;;23.62;100.00
6433;BME280;3249;42.690;23.260;2023-07-13T05:29:42;94651.94;;;23.86;100.00
6433;BME280;3249;42.690;23.260;2023-07-13T05:32:11;94656.69;;;24.02;100.00
6433;BME280;3249;42.690;23.260;2023-07-13T05:34:40;94653.88;;;23.80;100.00
6433;BME280;3249;42.690;23.260;2023-07-13T05:37:09;94659.97;;;24.08;100.00
6433;BME280;3249;42.690;23.260;2023-07-13T05:39:39;94654.25;;;24.06;100.00
6433;BME280;3249;42.690;23.260;2023-07-13T05:42:10;94660.28;;;23.74;100.00
6433;BME280;3249;42.690;23.260;2023-07-13T05:44:40;94656.91;;;23.87;100.00
6433;BME280;3249;42.690;23.260;2023-07-13T05:47:09;94652.34;;;23.61;100.00
6433;BME280;3249;42.690;23.260;2023-07-13T05:49:40;94655.78;;;23.75;100.00
6433;BME280;3249;42.690;23.260;2023-07-13T05:52:09;94649.94;;;23.96;100.00
6433;BME280;3249;42.690;23.260;2023-07-13T05:54:38;94654.66;;;24.26;100.00
6433;BME280;3249;42.690;23.260;2023-07-13T05:57:10;94659.56;;;24.46;100.00
6433;BME280;3249;42.690;23.260;2023-07-13T05:59:39;94649.81;;;24.74;100.00
6433;BME280;3249;42.690;23.260;2023-07-13T06:02:09;94626.97;;;24.69;100.00
6433;BME280;3249;42.690;23.260;2023-07-13T06:04:38;94642.59;;;24.79;100.00
6433;BME280;3249;42.690;23.260;2023-07-13T06:07:07;94645.09;;;24.57;100.00
6433;BME280;3249;42.690;23.260;2023-07-13T06:09:36;94642.88;;;24.78;100.00
6433;BME280;3249;42.690;23.260;2023-07-13T06:12:05;94657.53;;;24.70;100.00
6433;BME280;3249;42.690;23.260;2023-07-13T06:14:37;94664.88;;;24.41;100.00
6433;BME280;3249;42.690;23.260;2023-07-13T06:17:07;94665.81;;;24.64;99.21
6433;BME280;3249;42.690;23.260;2023-07-13T06:19:37;94664.03;;;24.86;93.52
6433;BME280;3249;42.690;23.260;2023-07-13T06:22:05;94660.22;;;24.92;93.85
6433;BME280;3249;42.690;23.260;2023-07-13T06:24:37;94650.28;;;24.49;92.63
6433;BME280;3249;42.690;23.260;2023-07-13T06:27:06;94672.81;;;24.95;91.39
6433;BME280;3249;42.690;23.260;2023-07-13T06:29:38;94679.88;;;25.22;90.90
6433;BME280;3249;42.690;23.260;2023-07-13T06:32:08;94669.81;;;25.37;93.18
6433;BME280;3249;42.690;23.260;2023-07-13T06:34:37;94663.66;;;25.64;93.61
6433;BME280;3249;42.690;23.260;2023-07-13T06:37:06;94655.66;;;25.55;90.46
6433;BME280;3249;42.690;23.260;2023-07-13T06:39:35;94667.13;;;25.73;89.70
6433;BME280;3249;42.690;23.260;2023-07-13T06:42:05;94661.06;;;25.72;90.56
6433;BME280;3249;42.690;23.260;2023-07-13T06:44:37;94655.13;;;25.89;89.42
6433;BME280;3249;42.690;23.260;2023-07-13T06:47:07;94662.03;;;25.76;90.06
6433;BME280;3249;42.690;23.260;2023-07-13T06:49:36;94665.50;;;25.85;88.36
6433;BME280;3249;42.690;23.260;2023-07-13T06:52:06;94664.75;;;25.63;87.83
6433;BME280;3249;42.690;23.260;2023-07-13T06:54:35;94658.25;;;25.69;89.65
6433;BME280;3249;42.690;23.260;2023-07-13T06:57:05;94659.22;;;25.73;90.32
6433;BME280;3249;42.690;23.260;2023-07-13T06:59:33;94666.88;;;26.05;85.59
6433;BME280;3249;42.690;23.260;2023-07-13T07:02:06;94664.50;;;26.26;84.97
6433;BME280;3249;42.690;23.260;2023-07-13T07:04:37;94664.56;;;25.81;86.95
6433;BME280;3249;42.690;23.260;2023-07-13T07:07:05;94661.78;;;25.86;83.94
6433;BME280;3249;42.690;23.260;2023-07-13T07:09:34;94666.09;;;25.82;90.13
6433;BME280;3249;42.690;23.260;2023-07-13T07:12:05;94666.38;;;25.95;88.59
6433;BME280;3249;42.690;23.260;2023-07-13T07:14:34;94658.94;;;26.27;86.08
6433;BME280;3249;42.690;23.260;2023-07-13T07:17:06;94656.00;;;26.37;85.93
6433;BME280;3249;42.690;23.260;2023-07-13T07:19:35;94632.91;;;26.43;88.32
6433;BME280;3249;42.690;23.260;2023-07-13T07:22:04;94650.19;;;26.57;89.03
6433;BME280;3249;42.690;23.260;2023-07-13T07:24:34;94655.88;;;26.42;90.53
6433;BME280;3249;42.690;23.260;2023-07-13T07:27:04;94656.63;;;26.65;89.76
6433;BME280;3249;42.690;23.260;2023-07-13T07:29:32;94651.41;;;26.99;84.38
6433;BME280;3249;42.690;23.260;2023-07-13T07:32:05;94653.13;;;27.12;85.02
6433;BME280;3249;42.690;23.260;2023-07-13T07:34:35;94651.78;;;27.23;85.09
6433;BME280;3249;42.690;23.260;2023-07-13T07:37:05;94637.56;;;26.85;83.86
6433;BME280;3249;42.690;23.260;2023-07-13T07:39:34;94643.66;;;27.02;82.28
6433;BME280;3249;42.690;23.260;2023-07-13T07:42:07;94646.31;;;27.19;80.53
6433;BME280;3249;42.690;23.260;2023-07-13T07:44:36;94642.13;;;27.61;79.06
6433;BME280;3249;42.690;23.260;2023-07-13T07:47:09;94639.50;;;27.61;78.84
6433;BME280;3249;42.690;23.260;2023-07-13T07:49:38;94643.53;;;27.84;78.35
6433;BME280;3249;42.690;23.260;2023-07-13T07:52:08;94639.31;;;28.00;75.42
6433;BME280;3249;42.690;23.260;2023-07-13T07:54:37;94642.44;;;27.85;76.75
6433;BME280;3249;42.690;23.260;2023-07-13T07:57:06;94638.09;;;27.72;78.28
6433;BME280;3249;42.690;23.260;2023-07-13T07:59:37;94628.41;;;27.93;78.34
6433;BME280;3249;42.690;23.260;2023-07-13T08:02:12;94634.38;;;28.27;74.46
6433;BME280;3249;42.690;23.260;2023-07-13T08:04:41;94615.84;;;28.27;74.99
6433;BME280;3249;42.690;23.260;2023-07-13T08:07:11;94622.19;;;28.35;72.83
6433;BME280;3249;42.690;23.260;2023-07-13T08:09:40;94621.84;;;28.53;73.00
6433;BME280;3249;42.690;23.260;2023-07-13T08:12:10;94618.16;;;28.37;72.42
6433;BME280;3249;42.690;23.260;2023-07-13T08:14:39;94627.81;;;28.42;74.62
6433;BME280;3249;42.690;23.260;2023-07-13T08:17:08;94610.13;;;28.17;69.42
6433;BME280;3249;42.690;23.260;2023-07-13T08:19:41;94576.44;;;28.17;71.82
6433;BME280;3249;42.690;23.260;2023-07-13T08:22:12;94616.88;;;28.43;70.82
6433;BME280;3249;42.690;23.260;2023-07-13T08:24:41;94618.41;;;28.53;66.92
6433;BME280;3249;42.690;23.260;2023-07-13T08:27:11;94612.47;;;28.56;68.53
6433;BME280;3249;42.690;23.260;2023-07-13T08:29:40;94620.19;;;28.69;66.29
6433;BME280;3249;42.690;23.260;2023-07-13T08:32:09;94615.16;;;28.39;69.07
6433;BME280;3249;42.690;23.260;2023-07-13T08:34:38;94612.81;;;28.46;66.50
6433;BME280;3249;42.690;23.260;2023-07-13T08:37:10;94587.34;;;28.62;65.88
6433;BME280;3249;42.690;23.260;2023-07-13T08:39:39;94593.47;;;28.54;65.39
6433;BME280;3249;42.690;23.260;2023-07-13T08:42:14;94599.91;;;28.94;64.00
6433;BME280;3249;42.690;23.260;2023-07-13T08:44:52;94609.72;;;29.02;63.55
6433;BME280;3249;42.690;23.260;2023-07-13T08:47:26;94597.47;;;28.89;64.89
6433;BME280;3249;42.690;23.260;2023-07-13T08:50:12;94609.31;;;29.32;61.85
6433;BME280;3249;42.690;23.260;2023-07-13T08:52:49;94605.84;;;29.61;60.21
6433;BME280;3249;42.690;23.260;2023-07-13T08:55:22;94610.53;;;29.76;59.11
6433;BME280;3249;42.690;23.260;2023-07-13T08:58:00;94625.09;;;29.70;57.32
6433;BME280;3249;42.690;23.260;2023-07-13T09:00:36;94626.13;;;29.57;57.71
6433;BME280;3249;42.690;23.260;2023-07-13T09:03:18;94623.91;;;29.47;67.67
6433;BME280;3249;42.690;23.260;2023-07-13T09:05:52;94626.66;;;29.30;66.97
6433;BME280;3249;42.690;23.260;2023-07-13T09:08:42;94637.19;;;28.97;70.59
6433;BME280;3249;42.690;23.260;2023-07-13T09:11:27;94630.59;;;29.44;66.38
6433;BME280;3249;42.690;23.260;2023-07-13T09:14:01;94621.84;;;29.32;67.44
6433;BME280;3249;42.690;23.260;2023-07-13T09:16:33;94631.53;;;29.48;59.77
6433;BME280;3249;42.690;23.260;2023-07-13T09:19:06;94615.63;;;29.81;59.41
6433;BME280;3249;42.690;23.260;2023-07-13T09:21:40;94637.16;;;30.00;56.62
6433;BME280;3249;42.690;23.260;2023-07-13T09:24:28;94603.31;;;30.09;49.88
6433;BME280;3249;42.690;23.260;2023-07-13T09:26:58;94638.59;;;30.42;50.33
6433;BME280;3249;42.690;23.260;2023-07-13T09:29:33;94627.84;;;30.63;44.60
6433;BME280;3249;42.690;23.260;2023-07-13T09:32:06;94637.41;;;30.88;40.88
6433;BME280;3249;42.690;23.260;2023-07-13T09:34:36;94650.78;;;31.15;37.39
6433;BME280;3249;42.690;23.260;2023-07-13T09:37:05;94643.03;;;31.10;40.71
6433;BME280;3249;42.690;23.260;2023-07-13T09:39:39;94655.22;;;31.23;38.06
6433;BME280;3249;42.690;23.260;2023-07-13T09:42:15;94650.84;;;31.43;34.58
6433;BME280;3249;42.690;23.260;2023-07-13T09:44:53;94654.16;;;31.52;32.58
6433;BME280;3249;42.690;23.260;2023-07-13T09:47:24;94645.81;;;31.65;31.94
6433;BME280;3249;42.690;23.260;2023-07-13T09:49:58;94615.19;;;31.59;32.58
6433;BME280;3249;42.690;23.260;2023-07-13T09:52:40;94630.84;;;31.88;31.08
6433;BME280;3249;42.690;23.260;2023-07-13T09:55:30;94632.22;;;31.98;30.15
6433;BME280;3249;42.690;23.260;2023-07-13T09:58:04;94622.63;;;31.93;30.42
6433;BME280;3249;42.690;23.260;2023-07-13T10:00:36;94631.31;;;32.06;31.00
6433;BME280;3249;42.690;23.260;2023-07-13T10:03:16;94621.50;;;32.10;31.17
6433;BME280;3249;42.690;23.260;2023-07-13T10:05:48;94621.50;;;32.10;30.93
6433;BME280;3249;42.690;23.260;2023-07-13T10:08:21;94617.63;;;32.07;31.75
6433;BME280;3249;42.690;23.260;2023-07-13T10:10:58;94613.69;;;32.01;31.43
6433;BME280;3249;42.690;23.260;2023-07-13T10:13:32;94615.22;;;32.02;31.16
6433;BME280;3249;42.690;23.260;2023-07-13T10:16:04;94583.06;;;31.95;32.11
6433;BME280;3249;42.690;23.260;2023-07-13T10:18:39;94614.56;;;32.21;31.71
6433;BME280;3249;42.690;23.260;2023-07-13T10:21:12;94625.16;;;32.33;30.74
6433;BME280;3249;42.690;23.260;2023-07-13T10:23:43;94619.06;;;32.32;31.15
6433;BME280;3249;42.690;23.260;2023-07-13T10:26:21;94607.63;;;32.32;29.87
6433;BME280;3249;42.690;23.260;2023-07-13T10:28:54;94625.78;;;32.42;28.61
6433;BME280;3249;42.690;23.260;2023-07-13T10:31:25;94602.97;;;32.29;28.71
6433;BME280;3249;42.690;23.260;2023-07-13T10:33:54;94620.28;;;32.50;28.99
6433;BME280;3249;42.690;23.260;2023-07-13T10:36:38;94605.97;;;32.58;29.17
6433;BME280;3249;42.690;23.260;2023-07-13T10:39:15;94600.94;;;32.53;28.46
6433;BME280;3249;42.690;23.260;2023-07-13T10:41:50;94609.25;;;32.67;27.57
6433;BME280;3249;42.690;23.260;2023-07-13T10:44:25;94611.50;;;32.65;27.41
6433;BME280;3249;42.690;23.260;2023-07-13T10:46:57;94592.22;;;32.56;27.98
6433;BME280;3249;42.690;23.260;2023-07-13T10:49:29;94602.69;;;32.80;27.36
6433;BME280;3249;42.690;23.260;2023-07-13T10:51:59;94587.03;;;32.63;27.57
6433;BME280;3249;42.690;23.260;2023-07-13T10:54:31;94592.19;;;32.87;27.74
6433;BME280;3249;42.690;23.260;2023-07-13T10:57:15;94589.94;;;32.74;27.26
6433;BME280;3249;42.690;23.260;2023-07-13T11:00:10;94578.94;;;32.75;28.61
6433;BME280;3249;42.690;23.260;2023-07-13T11:02:38;94568.03;;;32.80;27.27
6433;BME280;3249;42.690;23.260;2023-07-13T11:05:26;94576.97;;;32.88;27.78
6433;BME280;3249;42.690;23.260;2023-07-13T11:08:11;94526.31;;;32.72;28.38
6433;BME280;3249;42.690;23.260;2023-07-13T11:10:48;94560.91;;;33.03;28.13
6433;BME280;3249;42.690;23.260;2023-07-13T11:13:55;94557.38;;;32.99;28.04
6433;BME280;3249;42.690;23.260;2023-07-13T11:16:43;94543.53;;;32.94;28.78
6433;BME280;3249;42.690;23.260;2023-07-13T11:19:40;94552.22;;;33.25;29.67
6433;BME280;3249;42.690;23.260;2023-07-13T11:22:13;94532.53;;;33.14;28.66
6433;BME280;3249;42.690;23.260;2023-07-13T11:25:20;94559.75;;;33.58;29.63
6433;BME280;3249;42.690;23.260;2023-07-13T11:28:05;94554.41;;;33.58;28.72
6433;BME280;3249;42.690;23.260;2023-07-13T11:30:39;94544.56;;;33.62;29.42
6433;BME280;3249;42.690;23.260;2023-07-13T11:33:14;94547.00;;;33.71;29.06
6433;BME280;3249;42.690;23.260;2023-07-13T11:35:50;94534.94;;;33.58;29.28
6433;BME280;3249;42.690;23.260;2023-07-13T11:38:24;94544.56;;;33.62;29.56
6433;BME280;3249;42.690;23.260;2023-07-13T11:40:58;94548.97;;;33.74;29.57
6433;BME280;3249;42.690;23.260;2023-07-13T11:43:31;94539.81;;;33.75;29.77
6433;BME280;3249;42.690;23.260;2023-07-13T11:46:20;94518.69;;;33.66;28.69
6433;BME280;3249;42.690;23.260;2023-07-13T11:48:51;94521.16;;;33.56;29.46
6433;BME280;3249;42.690;23.260;2023-07-13T11:51:22;94535.91;;;33.69;30.17
6433;BME280;3249;42.690;23.260;2023-07-13T11:53:54;94520.03;;;33.57;30.38
6433;BME280;3249;42.690;23.260;2023-07-13T11:56:25;94509.06;;;33.62;29.99
6433;BME280;3249;42.690;23.260;2023-07-13T11:58:56;94532.50;;;33.91;28.91
6433;BME280;3249;42.690;23.260;2023-07-13T12:01:30;94516.81;;;33.89;27.56
6433;BME280;3249;42.690;23.260;2023-07-13T12:04:02;94519.09;;;33.87;27.47
6433;BME280;3249;42.690;23.260;2023-07-13T12:06:35;94517.38;;;33.98;28.90
6433;BME280;3249;42.690;23.260;2023-07-13T12:09:12;94517.47;;;34.05;28.38
6433;BME280;3249;42.690;23.260;2023-07-13T12:11:42;94508.69;;;34.05;28.29
6433;BME280;3249;42.690;23.260;2023-07-13T12:14:14;94525.97;;;34.11;27.71
6433;BME280;3249;42.690;23.260;2023-07-13T12:16:46;94512.94;;;34.09;26.98
6433;BME280;3249;42.690;23.260;2023-07-13T12:19:19;94509.88;;;34.07;27.60
6433;BME280;3249;42.690;23.260;2023-07-13T12:21:52;94482.66;;;34.02;27.35
6433;BME280;3249;42.690;23.260;2023-07-13T12:24:22;94512.41;;;34.23;26.94
6433;BME280;3249;42.690;23.260;2023-07-13T12:26:53;94497.13;;;34.23;27.12
6433;BME280;3249;42.690;23.260;2023-07-13T12:29:23;94489.59;;;34.29;26.96
6433;BME280;3249;42.690;23.260;2023-07-13T12:31:54;94504.22;;;34.35;26.84
6433;BME280;3249;42.690;23.260;2023-07-13T12:34:26;94497.44;;;34.41;26.05
6433;BME280;3249;42.690;23.260;2023-07-13T12:36:58;94484.06;;;34.41;26.32
6433;BME280;3249;42.690;23.260;2023-07-13T12:39:32;94496.19;;;34.61;26.16
6433;BME280;3249;42.690;23.260;2023-07-13T12:42:20;94475.47;;;34.54;26.38
6433;BME280;3249;42.690;23.260;2023-07-13T12:44:53;94480.03;;;34.54;25.59
6433;BME280;3249;42.690;23.260;2023-07-13T12:47:27;94479.44;;;34.64;25.88
6433;BME280;3249;42.690;23.260;2023-07-13T12:49:58;94473.31;;;34.67;26.16
6433;BME280;3249;42.690;23.260;2023-07-13T12:52:30;94463.63;;;34.55;26.05
6433;BME280;3249;42.690;23.260;2023-07-13T12:55:05;94479.72;;;34.59;25.90
6433;BME280;3249;42.690;23.260;2023-07-13T12:57:46;94466.75;;;34.61;25.93
6433;BME280;3249;42.690;23.260;2023-07-13T13:00:23;94465.72;;;34.69;26.46
6433;BME280;3249;42.690;23.260;2023-07-13T13:02:56;94467.31;;;34.73;26.47
6433;BME280;3249;42.690;23.260;2023-07-13T13:05:27;94465.75;;;34.72;26.06
6433;BME280;3249;42.690;23.260;2023-07-13T13:07:57;94460.41;;;34.72;25.48
6433;BME280;3249;42.690;23.260;2023-07-13T13:10:27;94445.91;;;34.73;25.75
6433;BME280;3249;42.690;23.260;2023-07-13T13:12:56;94445.13;;;34.73;25.72
6433;BME280;3249;42.690;23.260;2023-07-13T13:15:25;94447.97;;;34.83;25.57
6433;BME280;3249;42.690;23.260;2023-07-13T13:17:56;94452.34;;;34.98;26.66
6433;BME280;3249;42.690;23.260;2023-07-13T13:20:26;94449.25;;;34.96;24.65
6433;BME280;3249;42.690;23.260;2023-07-13T13:22:56;94445.50;;;35.01;24.98
6433;BME280;3249;42.690;23.260;2023-07-13T13:25:25;94435.16;;;34.99;25.30
6433;BME280;3249;42.690;23.260;2023-07-13T13:27:54;94452.94;;;35.14;25.04
6433;BME280;3249;42.690;23.260;2023-07-13T13:30:23;94443.78;;;35.19;24.69